createdAt,value
2022-07-28T00:00:10.868Z,68.88
2022-07-28T00:02:37.829Z,69.17
2022-07-28T00:05:05.280Z,68.95
2022-07-28T00:07:32.631Z,69.03
2022-07-28T00:10:00.834Z,69.52
2022-07-28T00:12:28.484Z,70.28
2022-07-28T00:14:55.494Z,70.09
2022-07-28T00:17:22.552Z,69.62
2022-07-28T00:19:50.808Z,69.57
2022-07-28T00:22:18.271Z,69.66
2022-07-28T00:24:45.526Z,69.91
2022-07-28T00:27:13.840Z,69.94
2022-07-28T00:29:50.031Z,70.00
2022-07-28T00:32:19.003Z,70.68
2022-07-28T00:34:46.286Z,70.31
2022-07-28T00:37:14.867Z,70.24
2022-07-28T00:39:43.227Z,70.21
2022-07-28T00:42:10.300Z,69.95
2022-07-28T00:44:39.226Z,70.20
2022-07-28T00:47:06.377Z,69.82
2022-07-28T00:49:33.603Z,69.57
2022-07-28T00:52:01.423Z,70.39
2022-07-28T00:54:28.635Z,70.26
2022-07-28T00:56:55.717Z,69.92
2022-07-28T00:59:22.949Z,69.96
2022-07-28T01:01:50.124Z,69.85
2022-07-28T01:04:21.292Z,69.27
2022-07-28T01:07:08.927Z,69.49
2022-07-28T01:09:45.342Z,69.66
2022-07-28T01:12:20.883Z,69.55
2022-07-28T01:14:58.453Z,69.97
2022-07-28T01:17:49.586Z,69.64
2022-07-28T01:20:38.464Z,69.80
2022-07-28T01:23:20.533Z,69.76
2022-07-28T01:26:23.947Z,69.92
2022-07-28T01:28:56.672Z,70.15
2022-07-28T01:31:26.902Z,69.89
2022-07-28T01:34:00.099Z,69.88
2022-07-28T01:36:33.486Z,69.61
2022-07-28T01:39:01.485Z,69.64
2022-07-28T01:41:31.164Z,70.01
2022-07-28T01:44:06.293Z,69.64
2022-07-28T01:46:34.268Z,70.25
2022-07-28T01:49:02.613Z,69.90
2022-07-28T01:51:33.597Z,70.22
2022-07-28T01:54:02.547Z,69.91
2022-07-28T01:56:33.371Z,70.11
2022-07-28T01:59:05.619Z,69.94
2022-07-28T02:01:36.684Z,69.97
2022-07-28T02:04:06.217Z,70.01
2022-07-28T02:06:35.553Z,70.53
2022-07-28T02:09:05.304Z,70.30
2022-07-28T02:11:40.641Z,70.63
2022-07-28T02:14:18.336Z,70.74
2022-07-28T02:16:51.845Z,70.53
2022-07-28T02:19:21.342Z,70.92
2022-07-28T02:21:50.195Z,70.89
2022-07-28T02:24:21.295Z,71.04
2022-07-28T02:26:57.646Z,71.27
2022-07-28T02:29:49.855Z,70.97
2022-07-28T02:32:27.288Z,70.80
2022-07-28T02:35:12.177Z,71.21
2022-07-28T02:37:45.322Z,71.04
2022-07-28T02:40:15.027Z,70.85
2022-07-28T02:42:47.227Z,71.22
2022-07-28T02:45:16.903Z,71.43
2022-07-28T02:47:51.763Z,71.47
2022-07-28T02:50:23.340Z,71.68
2022-07-28T02:52:53.201Z,71.96
2022-07-28T02:55:20.823Z,72.51
2022-07-28T02:57:51.994Z,72.06
2022-07-28T03:00:22.684Z,71.42
2022-07-28T03:02:50.018Z,70.72
2022-07-28T03:05:17.851Z,71.33
2022-07-28T03:07:50.842Z,69.88
2022-07-28T03:10:34.244Z,70.13
2022-07-28T03:13:03.857Z,69.56
2022-07-28T03:15:32.295Z,68.64
2022-07-28T03:18:01.263Z,68.61
2022-07-28T03:20:28.504Z,69.34
2022-07-28T03:22:55.582Z,68.62
2022-07-28T03:25:44.855Z,69.02
2022-07-28T03:28:17.923Z,68.46
2022-07-28T03:30:56.149Z,68.24
2022-07-28T03:33:23.943Z,67.66
2022-07-28T03:35:53.769Z,68.05
2022-07-28T03:38:29.508Z,67.67
2022-07-28T03:40:57.140Z,67.91
2022-07-28T03:43:26.151Z,68.30
2022-07-28T03:45:53.212Z,67.29
2022-07-28T03:48:23.544Z,67.76
2022-07-28T03:50:50.587Z,67.30
2022-07-28T03:53:22.800Z,66.91
2022-07-28T03:55:53.720Z,66.38
2022-07-28T03:58:26.063Z,67.45
2022-07-28T04:00:55.720Z,66.44
2022-07-28T04:03:43.374Z,65.57
2022-07-28T04:06:09.704Z,66.03
2022-07-28T04:08:36.708Z,65.67
2022-07-28T04:11:03.819Z,67.29
2022-07-28T04:13:32.319Z,65.77
2022-07-28T04:16:00.387Z,67.12
2022-07-28T04:18:27.403Z,66.74
2022-07-28T04:20:55.846Z,65.56
2022-07-28T04:23:24.148Z,64.97
2022-07-28T04:25:52.465Z,65.11
2022-07-28T04:28:19.488Z,64.49
2022-07-28T04:30:46.589Z,66.09
2022-07-28T04:33:14.029Z,65.42
2022-07-28T04:35:41.131Z,64.18
2022-07-28T04:38:08.556Z,65.49
2022-07-28T04:40:35.605Z,64.43
2022-07-28T04:43:04.115Z,65.48
2022-07-28T04:45:31.233Z,65.00
2022-07-28T04:47:58.251Z,66.09
2022-07-28T04:50:25.479Z,66.17
2022-07-28T04:52:58.992Z,65.99
2022-07-28T04:55:26.541Z,66.23
2022-07-28T04:57:53.512Z,65.79
2022-07-28T05:00:21.610Z,66.95
2022-07-28T05:02:50.433Z,65.45
2022-07-28T05:05:18.223Z,63.97
2022-07-28T05:07:45.247Z,65.00
2022-07-28T05:10:12.990Z,65.11
2022-07-28T05:12:40.074Z,64.25
2022-07-28T05:15:07.950Z,62.98
2022-07-28T05:17:35.175Z,63.78
2022-07-28T05:20:03.271Z,60.38
2022-07-28T05:22:45.045Z,62.34
2022-07-28T05:25:19.462Z,59.25
2022-07-28T05:27:47.644Z,59.73
2022-07-28T05:30:15.835Z,60.63
2022-07-28T05:32:43.274Z,59.28
2022-07-28T05:35:10.639Z,58.35
2022-07-28T05:37:38.070Z,58.00
2022-07-28T05:40:10.832Z,58.48
2022-07-28T05:42:38.012Z,57.72
2022-07-28T05:45:15.778Z,57.86
2022-07-28T05:47:49.557Z,56.42
2022-07-28T05:50:18.000Z,55.58
2022-07-28T05:52:47.006Z,55.55
2022-07-28T05:55:14.611Z,56.04
2022-07-28T05:57:42.272Z,54.97
2022-07-28T06:00:12.183Z,54.88
2022-07-28T06:02:39.999Z,54.85
2022-07-28T06:05:07.499Z,54.86
2022-07-28T06:07:43.076Z,53.15
2022-07-28T06:10:17.075Z,54.08
2022-07-28T06:12:47.000Z,53.08
2022-07-28T06:15:16.074Z,52.69
2022-07-28T06:17:43.383Z,51.67
2022-07-28T06:20:12.116Z,51.53
2022-07-28T06:22:47.405Z,51.48
2022-07-28T06:25:26.205Z,51.64
2022-07-28T06:27:55.887Z,49.91
2022-07-28T06:30:23.906Z,49.56
2022-07-28T06:32:50.979Z,49.15
2022-07-28T06:35:18.296Z,51.94
2022-07-28T06:37:47.330Z,50.02
2022-07-28T06:40:15.990Z,49.60
2022-07-28T06:42:43.713Z,48.78
2022-07-28T06:45:19.562Z,49.03
2022-07-28T06:47:53.630Z,49.33
2022-07-28T06:50:26.016Z,48.85
2022-07-28T06:52:55.973Z,49.78
2022-07-28T06:55:23.128Z,49.58
2022-07-28T06:57:50.279Z,49.19
2022-07-28T07:00:17.640Z,49.74
2022-07-28T07:02:44.657Z,49.22
2022-07-28T07:05:12.269Z,49.98
2022-07-28T07:07:43.061Z,49.10
2022-07-28T07:10:11.368Z,48.86
2022-07-28T07:12:39.081Z,48.46
2022-07-28T07:15:09.680Z,47.90
2022-07-28T07:17:37.706Z,48.09
2022-07-28T07:20:08.716Z,48.53
2022-07-28T07:22:35.810Z,47.21
2022-07-28T07:25:14.058Z,47.82
2022-07-28T07:27:41.112Z,46.23
2022-07-28T07:30:09.339Z,46.66
2022-07-28T07:32:37.813Z,46.16
2022-07-28T07:35:06.235Z,45.84
2022-07-28T07:37:33.329Z,45.58
2022-07-28T07:40:01.513Z,44.85
2022-07-28T07:42:30.994Z,45.46
2022-07-28T07:44:58.000Z,45.05
2022-07-28T07:47:24.952Z,45.92
2022-07-28T07:49:51.916Z,45.35
2022-07-28T07:52:18.936Z,45.52
2022-07-28T07:54:46.000Z,45.83
2022-07-28T07:57:13.479Z,44.39
2022-07-28T07:59:40.512Z,43.56
2022-07-28T08:02:07.687Z,43.67
2022-07-28T08:04:38.269Z,44.92
2022-07-28T08:07:06.645Z,44.27
2022-07-28T08:09:34.946Z,43.94
2022-07-28T08:12:02.389Z,44.23
2022-07-28T08:14:29.517Z,43.87
2022-07-28T08:16:58.577Z,43.49
2022-07-28T08:19:26.379Z,44.19
2022-07-28T08:21:53.849Z,43.34
2022-07-28T08:24:32.929Z,44.32
2022-07-28T08:27:04.855Z,43.72
2022-07-28T08:29:32.035Z,43.43
2022-07-28T08:31:59.349Z,43.43
2022-07-28T08:34:32.879Z,43.69
2022-07-28T08:37:05.620Z,43.82
2022-07-28T08:39:34.140Z,43.26
2022-07-28T08:42:23.053Z,43.29
2022-07-28T08:45:03.435Z,43.77
2022-07-28T08:47:58.706Z,43.02
2022-07-28T08:50:25.637Z,42.67
2022-07-28T08:52:53.945Z,42.72
2022-07-28T08:55:32.059Z,43.30
2022-07-28T08:58:00.783Z,43.29
2022-07-28T09:00:28.443Z,42.31
2022-07-28T09:02:56.214Z,42.49
2022-07-28T09:05:24.445Z,42.56
2022-07-28T09:07:55.353Z,42.06
2022-07-28T09:10:23.573Z,42.05
2022-07-28T09:12:50.874Z,42.93
2022-07-28T09:15:17.936Z,43.44
2022-07-28T09:17:45.454Z,43.56
2022-07-28T09:20:13.273Z,45.25
2022-07-28T09:23:43.245Z,45.46
2022-07-28T09:26:11.481Z,46.62
2022-07-28T09:28:52.023Z,46.19
2022-07-28T09:31:20.099Z,45.36
2022-07-28T09:34:01.098Z,47.13
2022-07-28T09:36:42.093Z,51.44
2022-07-28T09:39:09.238Z,53.00
2022-07-28T09:41:57.746Z,53.04
2022-07-28T09:44:26.643Z,53.27
2022-07-28T09:46:55.434Z,53.32
2022-07-28T09:49:39.109Z,53.51
2022-07-28T09:52:07.102Z,52.87
2022-07-28T09:54:38.719Z,52.28
2022-07-28T09:57:11.730Z,53.73
2022-07-28T09:59:46.181Z,51.81
2022-07-28T10:02:28.324Z,51.21
2022-07-28T10:05:00.332Z,50.29
2022-07-28T10:07:30.087Z,50.20
2022-07-28T10:09:58.245Z,50.14
2022-07-28T10:12:27.555Z,53.38
2022-07-28T10:14:56.981Z,49.83
2022-07-28T10:17:31.175Z,50.59
2022-07-28T10:20:04.157Z,49.10
2022-07-28T10:22:34.077Z,47.97
2022-07-28T10:25:05.903Z,47.32
2022-07-28T10:27:33.507Z,45.65
2022-07-28T10:30:04.243Z,45.49
2022-07-28T10:32:38.529Z,45.56
2022-07-28T10:35:10.123Z,46.78
2022-07-28T10:37:54.458Z,46.54
2022-07-28T10:40:26.814Z,45.68
2022-07-28T10:42:55.299Z,43.37
2022-07-28T10:45:22.736Z,44.04
2022-07-28T10:47:50.331Z,43.59
2022-07-28T10:50:18.955Z,43.83
2022-07-28T10:52:50.035Z,43.73
2022-07-28T10:55:33.684Z,45.01
2022-07-28T10:58:19.279Z,44.34
2022-07-28T11:00:57.387Z,44.86
2022-07-28T11:03:44.348Z,44.86
2022-07-28T11:06:35.845Z,44.25
2022-07-28T11:09:17.795Z,45.48
2022-07-28T11:11:57.951Z,44.89
2022-07-28T11:14:26.067Z,44.91
2022-07-28T11:17:00.239Z,44.95
2022-07-28T11:19:55.700Z,43.96
2022-07-28T11:22:34.843Z,42.73
2022-07-28T11:25:18.521Z,42.90
2022-07-28T11:27:50.788Z,43.23
2022-07-28T11:30:33.053Z,43.25
2022-07-28T11:33:01.462Z,43.72
2022-07-28T11:35:53.219Z,44.35
2022-07-28T11:38:20.540Z,45.29
2022-07-28T11:40:51.801Z,45.69
2022-07-28T11:43:35.333Z,46.65
2022-07-28T11:46:10.468Z,46.31
2022-07-28T11:48:45.376Z,46.27
2022-07-28T11:51:14.159Z,45.97
2022-07-28T11:53:43.607Z,46.00
2022-07-28T11:56:16.010Z,44.98
2022-07-28T11:58:43.762Z,45.75
2022-07-28T12:01:17.953Z,43.58
2022-07-28T12:03:54.262Z,43.22
2022-07-28T12:06:29.339Z,43.29
2022-07-28T12:09:00.244Z,43.41
2022-07-28T12:11:31.246Z,42.88
2022-07-28T12:14:09.803Z,43.80
2022-07-28T12:16:39.684Z,45.39
2022-07-28T12:19:08.796Z,45.39
2022-07-28T12:21:46.660Z,45.57
2022-07-28T12:24:30.778Z,45.77
2022-07-28T12:27:00.392Z,46.64
2022-07-28T12:29:35.836Z,47.32
2022-07-28T12:32:10.368Z,47.18
2022-07-28T12:34:40.036Z,47.94
2022-07-28T12:37:11.336Z,47.95
2022-07-28T12:39:42.586Z,47.81
2022-07-28T12:42:11.810Z,48.19
2022-07-28T12:44:43.741Z,48.31
2022-07-28T12:47:12.965Z,48.17
2022-07-28T12:49:42.488Z,48.56
2022-07-28T12:52:17.152Z,48.11
2022-07-28T12:54:52.060Z,48.41
2022-07-28T12:57:50.767Z,48.56
2022-07-28T13:00:31.336Z,48.18
2022-07-28T13:03:00.776Z,48.98
2022-07-28T13:05:32.646Z,48.88
2022-07-28T13:08:05.238Z,48.91
2022-07-28T13:10:33.303Z,51.25
2022-07-28T13:13:07.918Z,49.72
2022-07-28T13:15:35.102Z,49.94
2022-07-28T13:18:02.411Z,49.75
2022-07-28T13:20:29.760Z,49.84
2022-07-28T13:22:57.553Z,50.00
2022-07-28T13:25:24.813Z,50.21
2022-07-28T13:27:55.626Z,49.98
2022-07-28T13:30:23.726Z,49.60
2022-07-28T13:32:51.184Z,48.67
2022-07-28T13:35:19.200Z,49.16
2022-07-28T13:37:48.157Z,49.49
2022-07-28T13:40:15.354Z,48.87
2022-07-28T13:42:53.435Z,48.71
2022-07-28T13:45:24.593Z,48.97
2022-07-28T13:47:52.421Z,49.78
2022-07-28T13:50:21.109Z,50.47
2022-07-28T13:52:48.705Z,49.51
2022-07-28T13:55:19.796Z,49.57
2022-07-28T13:57:50.659Z,51.07
2022-07-28T14:00:22.556Z,49.58
2022-07-28T14:02:50.270Z,50.79
2022-07-28T14:05:17.370Z,52.07
2022-07-28T14:07:48.045Z,53.34
2022-07-28T14:10:19.139Z,54.40
2022-07-28T14:12:46.699Z,54.34
2022-07-28T14:15:14.156Z,54.50
2022-07-28T14:17:42.689Z,55.25
2022-07-28T14:20:13.325Z,55.37
2022-07-28T14:22:41.083Z,56.38
2022-07-28T14:25:08.445Z,56.84
2022-07-28T14:27:35.639Z,56.91
2022-07-28T14:30:04.332Z,57.63
2022-07-28T14:32:33.517Z,57.66
2022-07-28T14:35:02.330Z,58.04
2022-07-28T14:37:47.175Z,58.61
2022-07-28T14:40:20.196Z,58.32
2022-07-28T14:42:47.225Z,59.29
2022-07-28T14:45:14.525Z,59.50
2022-07-28T14:47:44.560Z,61.19
2022-07-28T14:50:12.710Z,60.81
2022-07-28T14:52:40.410Z,60.42
2022-07-28T14:55:07.818Z,61.24
2022-07-28T14:57:48.530Z,61.14
2022-07-28T15:00:20.758Z,61.28
2022-07-28T15:02:48.253Z,61.12
2022-07-28T15:05:15.393Z,61.83
2022-07-28T15:07:42.570Z,61.81
2022-07-28T15:10:10.782Z,60.52
2022-07-28T15:12:38.277Z,60.76
2022-07-28T15:15:06.007Z,61.01
2022-07-28T15:17:33.634Z,61.40
2022-07-28T15:20:00.702Z,60.95
2022-07-28T15:22:27.764Z,60.46
2022-07-28T15:24:54.740Z,60.68
2022-07-28T15:27:21.900Z,60.77
2022-07-28T15:29:52.085Z,60.62
2022-07-28T15:32:26.289Z,60.64
2022-07-28T15:34:55.866Z,60.72
2022-07-28T15:37:23.292Z,60.67
2022-07-28T15:39:50.636Z,60.76
2022-07-28T15:42:17.693Z,60.44
2022-07-28T15:44:44.747Z,60.18
2022-07-28T15:47:11.790Z,59.13
2022-07-28T15:49:38.821Z,59.84
2022-07-28T15:52:06.086Z,59.96
2022-07-28T15:54:33.256Z,60.06
2022-07-28T15:57:00.335Z,60.14
2022-07-28T15:59:49.475Z,60.12
2022-07-28T16:02:17.753Z,59.64
2022-07-28T16:04:52.171Z,60.76
2022-07-28T16:07:24.338Z,60.37
2022-07-28T16:09:54.920Z,60.39
2022-07-28T16:12:27.974Z,60.84
2022-07-28T16:14:55.750Z,60.96
2022-07-28T16:17:23.808Z,60.81
2022-07-28T16:19:54.169Z,60.01
2022-07-28T16:22:21.577Z,59.89
2022-07-28T16:24:49.402Z,59.43
2022-07-28T16:27:17.131Z,60.04
2022-07-28T16:29:44.821Z,59.48
2022-07-28T16:32:12.322Z,59.76
2022-07-28T16:34:39.567Z,59.64
2022-07-28T16:37:06.721Z,60.13
2022-07-28T16:39:34.797Z,60.81
2022-07-28T16:42:02.871Z,60.40
2022-07-28T16:44:30.895Z,61.08
2022-07-28T16:46:58.231Z,61.07
2022-07-28T16:49:25.515Z,61.43
2022-07-28T16:51:52.951Z,60.53
2022-07-28T16:54:20.677Z,61.14
2022-07-28T16:56:48.050Z,61.41
2022-07-28T16:59:15.251Z,61.25
2022-07-28T17:01:46.175Z,61.62
2022-07-28T17:04:18.115Z,61.52
2022-07-28T17:06:47.868Z,62.29
2022-07-28T17:09:16.001Z,62.35
2022-07-28T17:11:43.946Z,62.33
2022-07-28T17:14:11.697Z,62.21
2022-07-28T17:16:38.957Z,62.45
2022-07-28T17:19:06.020Z,62.97
2022-07-28T17:21:33.067Z,62.15
2022-07-28T17:24:00.048Z,62.73
2022-07-28T17:27:33.583Z,62.67
2022-07-28T17:29:14.088Z,63.43
2022-07-28T17:31:43.498Z,63.42
2022-07-28T17:34:10.702Z,63.53
2022-07-28T17:36:39.040Z,64.17
2022-07-28T17:39:09.217Z,63.99
2022-07-28T17:41:36.416Z,64.45
2022-07-28T17:44:03.660Z,64.18
2022-07-28T17:46:30.736Z,63.93
2022-07-28T17:48:58.507Z,63.48
2022-07-28T17:51:26.808Z,64.50
2022-07-28T17:53:53.826Z,64.45
2022-07-28T17:56:22.763Z,63.85
2022-07-28T17:58:49.854Z,63.64
2022-07-28T18:01:16.953Z,63.77
2022-07-28T18:03:56.943Z,63.83
2022-07-28T18:06:30.433Z,63.27
2022-07-28T18:09:04.791Z,63.32
2022-07-28T18:11:34.122Z,63.67
2022-07-28T18:14:03.841Z,62.38
2022-07-28T18:16:31.969Z,62.63
2022-07-28T18:18:59.004Z,62.23
2022-07-28T18:21:26.812Z,62.36
2022-07-28T18:23:54.907Z,62.92
2022-07-28T18:26:22.325Z,62.01
2022-07-28T18:28:49.517Z,62.17
2022-07-28T18:31:16.636Z,62.39
2022-07-28T18:33:44.164Z,61.94
2022-07-28T18:36:11.305Z,61.93
2022-07-28T18:38:38.469Z,61.99
2022-07-28T18:41:05.455Z,62.68
2022-07-28T18:43:32.421Z,62.40
2022-07-28T18:45:59.468Z,62.22
2022-07-28T18:48:26.688Z,62.17
2022-07-28T18:50:53.619Z,62.52
2022-07-28T18:53:20.699Z,62.57
2022-07-28T18:55:47.644Z,62.01
2022-07-28T18:58:14.631Z,62.38
2022-07-28T19:00:41.770Z,62.48
2022-07-28T19:03:08.932Z,61.61
2022-07-28T19:05:36.419Z,61.87
2022-07-28T19:08:05.397Z,61.69
2022-07-28T19:10:32.644Z,61.62
2022-07-28T19:13:00.043Z,61.88
2022-07-28T19:15:27.233Z,61.14
2022-07-28T19:18:10.292Z,61.45
2022-07-28T19:20:38.979Z,62.16
2022-07-28T19:23:06.116Z,61.07
2022-07-28T19:25:35.723Z,60.95
2022-07-28T19:28:02.827Z,61.11
2022-07-28T19:30:32.243Z,60.51
2022-07-28T19:33:00.353Z,61.39
2022-07-28T19:35:27.447Z,61.59
2022-07-28T19:37:56.652Z,61.21
2022-07-28T19:40:25.596Z,60.79
2022-07-28T19:42:53.576Z,61.65
2022-07-28T19:45:20.667Z,60.46
2022-07-28T19:47:49.805Z,60.93
2022-07-28T19:50:17.229Z,60.64
2022-07-28T19:52:44.221Z,60.92
2022-07-28T19:55:11.519Z,61.61
2022-07-28T19:57:42.343Z,60.87
2022-07-28T20:00:10.407Z,61.85
2022-07-28T20:02:40.730Z,62.20
2022-07-28T20:05:08.502Z,61.89
2022-07-28T20:07:36.295Z,61.34
2022-07-28T20:10:03.853Z,62.27
2022-07-28T20:12:36.194Z,62.07
2022-07-28T20:15:08.042Z,61.98
2022-07-28T20:17:38.883Z,62.02
2022-07-28T20:20:12.874Z,62.58
2022-07-28T20:22:41.349Z,62.43
2022-07-28T20:25:10.308Z,62.35
2022-07-28T20:27:40.631Z,62.52
2022-07-28T20:30:09.915Z,61.92
2022-07-28T20:32:37.737Z,62.67
2022-07-28T20:35:06.704Z,62.23
2022-07-28T20:37:36.602Z,62.67
2022-07-28T20:40:08.996Z,62.81
2022-07-28T20:42:36.855Z,62.89
2022-07-28T20:45:04.957Z,62.71
2022-07-28T20:47:33.426Z,62.76
2022-07-28T20:50:01.013Z,62.51
2022-07-28T20:52:28.498Z,63.45
2022-07-28T20:54:55.790Z,62.97
2022-07-28T20:57:23.343Z,62.25
2022-07-28T20:59:52.246Z,62.91
2022-07-28T21:02:23.228Z,62.50
2022-07-28T21:04:51.167Z,62.56
2022-07-28T21:08:00.332Z,62.19
2022-07-28T21:10:07.169Z,62.71
2022-07-28T21:12:35.088Z,63.28
2022-07-28T21:15:02.228Z,63.34
2022-07-28T21:17:30.388Z,63.13
2022-07-28T21:19:57.357Z,62.52
2022-07-28T21:22:24.610Z,63.13
2022-07-28T21:24:55.312Z,63.75
2022-07-28T21:27:23.112Z,63.74
2022-07-28T21:32:17.793Z,63.27
2022-07-28T21:34:44.873Z,63.31
2022-07-28T21:37:13.085Z,62.99
2022-07-28T21:39:40.295Z,63.67
2022-07-28T21:42:08.874Z,62.83
2022-07-28T21:44:37.829Z,62.84
2022-07-28T21:47:04.969Z,64.13
2022-07-28T21:49:32.471Z,63.60
2022-07-28T21:52:00.006Z,63.88
2022-07-28T21:54:27.130Z,63.64
2022-07-28T21:56:54.269Z,63.18
2022-07-28T21:59:21.285Z,63.10
2022-07-28T22:01:48.349Z,63.82
2022-07-28T22:04:15.773Z,63.01
2022-07-28T22:06:46.242Z,63.06
2022-07-28T22:09:14.664Z,63.23
2022-07-28T22:11:41.920Z,62.79
2022-07-28T22:14:09.308Z,62.45
2022-07-28T22:16:36.445Z,62.73
2022-07-28T22:19:04.092Z,62.69
2022-07-28T22:21:31.250Z,62.12
2022-07-28T22:23:58.253Z,61.87
2022-07-28T22:26:25.323Z,62.77
2022-07-28T22:28:52.297Z,63.21
2022-07-28T22:31:19.316Z,62.75
2022-07-28T22:33:46.403Z,63.09
2022-07-28T22:36:14.167Z,62.88
2022-07-28T22:38:41.318Z,62.94
2022-07-28T22:41:09.715Z,63.17
2022-07-28T22:43:37.255Z,62.93
2022-07-28T22:46:04.623Z,62.55
2022-07-28T22:48:32.003Z,63.14
2022-07-28T22:50:59.057Z,63.89
2022-07-28T22:53:26.047Z,63.21
2022-07-28T22:55:53.010Z,62.80
2022-07-28T22:58:19.972Z,62.08
2022-07-28T23:00:47.205Z,61.97
2022-07-28T23:03:16.271Z,62.38
2022-07-28T23:05:43.429Z,62.50
2022-07-28T23:08:10.599Z,62.20
2022-07-28T23:10:38.021Z,61.83
2022-07-28T23:13:05.129Z,61.48
2022-07-28T23:15:40.868Z,61.70
2022-07-28T23:18:15.917Z,61.41
2022-07-28T23:20:45.089Z,61.77
2022-07-28T23:23:12.514Z,61.41
2022-07-28T23:25:42.967Z,61.72
2022-07-28T23:28:11.157Z,61.48
2022-07-28T23:30:38.363Z,61.06
2022-07-28T23:33:06.192Z,61.35
2022-07-28T23:35:35.654Z,61.01
2022-07-28T23:38:02.948Z,60.83
2022-07-28T23:40:30.045Z,61.39
2022-07-28T23:42:57.229Z,62.15
2022-07-28T23:45:25.617Z,61.33
2022-07-28T23:47:58.458Z,61.20
2022-07-28T23:50:26.440Z,61.02
2022-07-28T23:52:53.478Z,61.18
2022-07-28T23:55:20.596Z,60.80
2022-07-28T23:57:47.633Z,60.40
